sensor_id;sensor_type;location;lat;lon;timestamp;temperature;humidity
7192;DHT22;3637;51.494;11.958;2023-04-03T00:01:54;3.90;99.90
7192;DHT22;3637;51.494;11.958;2023-04-03T00:04:55;4.50;99.90
7192;DHT22;3637;51.494;11.958;2023-04-03T00:07:59;3.70;99.90
7192;DHT22;3637;51.494;11.958;2023-04-03T00:11:04;4.30;99.90
7192;DHT22;3637;51.494;11.958;2023-04-03T00:14:06;3.70;99.90
7192;DHT22;3637;51.494;11.958;2023-04-03T00:17:08;3.70;99.90
7192;DHT22;3637;51.494;11.958;2023-04-03T00:20:10;3.70;99.90
7192;DHT22;3637;51.494;11.958;2023-04-03T00:23:12;4.90;99.90
7192;DHT22;3637;51.494;11.958;2023-04-03T00:26:18;4.20;99.90
7192;DHT22;3637;51.494;11.958;2023-04-03T00:29:21;3.70;99.90
7192;DHT22;3637;51.494;11.958;2023-04-03T00:32:23;3.70;99.90
7192;DHT22;3637;51.494;11.958;2023-04-03T00:35:25;3.70;99.90
7192;DHT22;3637;51.494;11.958;2023-04-03T00:38:27;3.60;99.90
7192;DHT22;3637;51.494;11.958;2023-04-03T00:41:30;4.10;99.90
7192;DHT22;3637;51.494;11.958;2023-04-03T00:48:14;3.40;99.90
7192;DHT22;3637;51.494;11.958;2023-04-03T00:51:20;3.50;99.90
7192;DHT22;3637;51.494;11.958;2023-04-03T00:54:22;3.40;99.90
7192;DHT22;3637;51.494;11.958;2023-04-03T00:57:25;3.30;99.90
7192;DHT22;3637;51.494;11.958;2023-04-03T01:00:28;4.10;99.90
7192;DHT22;3637;51.494;11.958;2023-04-03T01:03:30;3.30;99.90
7192;DHT22;3637;51.494;11.958;2023-04-03T01:06:34;3.30;99.90
7192;DHT22;3637;51.494;11.958;2023-04-03T01:09:38;3.30;99.90
7192;DHT22;3637;51.494;11.958;2023-04-03T01:12:44;3.40;99.90
7192;DHT22;3637;51.494;11.958;2023-04-03T01:15:46;2.80;99.90
7192;DHT22;3637;51.494;11.958;2023-04-03T01:18:48;3.30;99.90
7192;DHT22;3637;51.494;11.958;2023-04-03T01:22:02;3.80;99.90
7192;DHT22;3637;51.494;11.958;2023-04-03T01:25:07;4.00;99.90
7192;DHT22;3637;51.494;11.958;2023-04-03T01:28:13;3.10;99.90
7192;DHT22;3637;51.494;11.958;2023-04-03T01:31:20;3.10;99.90
7192;DHT22;3637;51.494;11.958;2023-04-03T01:34:26;3.20;99.90
7192;DHT22;3637;51.494;11.958;2023-04-03T01:37:28;2.70;99.90
7192;DHT22;3637;51.494;11.958;2023-04-03T01:40:30;3.00;99.90
7192;DHT22;3637;51.494;11.958;2023-04-03T01:43:31;3.00;99.90
7192;DHT22;3637;51.494;11.958;2023-04-03T01:46:33;2.90;99.90
7192;DHT22;3637;51.494;11.958;2023-04-03T01:49:37;2.90;99.90
7192;DHT22;3637;51.494;11.958;2023-04-03T01:52:39;2.90;99.90
7192;DHT22;3637;51.494;11.958;2023-04-03T01:55:40;2.90;99.90
7192;DHT22;3637;51.494;11.958;2023-04-03T01:58:42;2.90;99.90
7192;DHT22;3637;51.494;11.958;2023-04-03T02:01:44;2.90;99.90
7192;DHT22;3637;51.494;11.958;2023-04-03T02:04:47;4.00;99.90
7192;DHT22;3637;51.494;11.958;2023-04-03T02:07:49;2.90;99.90
7192;DHT22;3637;51.494;11.958;2023-04-03T02:10:51;2.80;99.90
7192;DHT22;3637;51.494;11.958;2023-04-03T02:13:53;2.70;99.90
7192;DHT22;3637;51.494;11.958;2023-04-03T02:16:55;2.60;99.90
7192;DHT22;3637;51.494;11.958;2023-04-03T02:19:58;2.50;99.90
7192;DHT22;3637;51.494;11.958;2023-04-03T02:23:00;2.80;99.90
7192;DHT22;3637;51.494;11.958;2023-04-03T02:26:07;3.40;99.90
7192;DHT22;3637;51.494;11.958;2023-04-03T02:29:09;2.90;99.90
7192;DHT22;3637;51.494;11.958;2023-04-03T02:32:11;2.50;99.90
7192;DHT22;3637;51.494;11.958;2023-04-03T02:35:14;2.50;99.90
7192;DHT22;3637;51.494;11.958;2023-04-03T02:38:16;2.50;99.90
7192;DHT22;3637;51.494;11.958;2023-04-03T02:41:18;2.50;99.90
7192;DHT22;3637;51.494;11.958;2023-04-03T02:44:21;2.40;99.90
7192;DHT22;3637;51.494;11.958;2023-04-03T02:47:23;2.40;99.90
7192;DHT22;3637;51.494;11.958;2023-04-03T02:50:27;2.30;99.90
7192;DHT22;3637;51.494;11.958;2023-04-03T02:53:29;2.30;99.90
7192;DHT22;3637;51.494;11.958;2023-04-03T02:56:30;2.90;99.90
7192;DHT22;3637;51.494;11.958;2023-04-03T02:59:32;2.30;99.90
7192;DHT22;3637;51.494;11.958;2023-04-03T03:02:34;2.20;99.90
7192;DHT22;3637;51.494;11.958;2023-04-03T03:05:37;2.00;99.90
7192;DHT22;3637;51.494;11.958;2023-04-03T03:08:40;2.00;99.90
7192;DHT22;3637;51.494;11.958;2023-04-03T03:11:42;2.00;99.90
7192;DHT22;3637;51.494;11.958;2023-04-03T03:14:43;2.30;99.90
7192;DHT22;3637;51.494;11.958;2023-04-03T03:17:45;2.50;99.90
7192;DHT22;3637;51.494;11.958;2023-04-03T03:20:50;1.90;99.90
7192;DHT22;3637;51.494;11.958;2023-04-03T03:23:53;1.90;99.90
7192;DHT22;3637;51.494;11.958;2023-04-03T03:26:55;1.90;99.90
7192;DHT22;3637;51.494;11.958;2023-04-03T03:30:00;1.90;99.90
7192;DHT22;3637;51.494;11.958;2023-04-03T03:33:02;2.60;99.90
7192;DHT22;3637;51.494;11.958;2023-04-03T03:36:05;2.00;99.90
7192;DHT22;3637;51.494;11.958;2023-04-03T03:39:10;2.00;99.90
7192;DHT22;3637;51.494;11.958;2023-04-03T03:42:12;2.10;99.90
7192;DHT22;3637;51.494;11.958;2023-04-03T03:45:14;2.10;99.90
7192;DHT22;3637;51.494;11.958;2023-04-03T03:48:16;2.30;99.90
7192;DHT22;3637;51.494;11.958;2023-04-03T03:51:19;2.00;99.90
7192;DHT22;3637;51.494;11.958;2023-04-03T03:54:24;2.00;99.90
7192;DHT22;3637;51.494;11.958;2023-04-03T03:57:26;2.00;99.90
7192;DHT22;3637;51.494;11.958;2023-04-03T04:00:29;2.00;99.90
7192;DHT22;3637;51.494;11.958;2023-04-03T04:03:31;1.90;99.90
7192;DHT22;3637;51.494;11.958;2023-04-03T04:06:36;1.90;99.90
7192;DHT22;3637;51.494;11.958;2023-04-03T04:09:37;2.00;99.90
7192;DHT22;3637;51.494;11.958;2023-04-03T04:12:39;2.00;99.90
7192;DHT22;3637;51.494;11.958;2023-04-03T04:15:41;2.00;99.90
7192;DHT22;3637;51.494;11.958;2023-04-03T04:18:43;2.30;99.90
7192;DHT22;3637;51.494;11.958;2023-04-03T04:21:46;2.00;99.90
7192;DHT22;3637;51.494;11.958;2023-04-03T04:24:48;1.90;99.90
7192;DHT22;3637;51.494;11.958;2023-04-03T04:27:50;1.90;99.90
7192;DHT22;3637;51.494;11.958;2023-04-03T04:30:52;1.90;99.90
7192;DHT22;3637;51.494;11.958;2023-04-03T04:33:54;2.30;99.90
7192;DHT22;3637;51.494;11.958;2023-04-03T04:36:59;1.90;99.90
7192;DHT22;3637;51.494;11.958;2023-04-03T04:40:01;2.30;99.90
7192;DHT22;3637;51.494;11.958;2023-04-03T04:43:03;2.30;99.90
7192;DHT22;3637;51.494;11.958;2023-04-03T04:46:06;1.80;99.90
7192;DHT22;3637;51.494;11.958;2023-04-03T04:49:09;2.10;99.90
7192;DHT22;3637;51.494;11.958;2023-04-03T04:52:12;2.20;99.90
7192;DHT22;3637;51.494;11.958;2023-04-03T04:55:14;2.40;99.90
7192;DHT22;3637;51.494;11.958;2023-04-03T04:58:16;1.80;99.90
7192;DHT22;3637;51.494;11.958;2023-04-03T05:01:18;2.30;99.90
7192;DHT22;3637;51.494;11.958;2023-04-03T05:04:20;1.80;99.90
7192;DHT22;3637;51.494;11.958;2023-04-03T05:07:25;1.90;99.90
7192;DHT22;3637;51.494;11.958;2023-04-03T05:10:26;1.80;99.90
7192;DHT22;3637;51.494;11.958;2023-04-03T05:13:28;2.40;99.90
7192;DHT22;3637;51.494;11.958;2023-04-03T05:16:30;1.90;99.90
7192;DHT22;3637;51.494;11.958;2023-04-03T05:19:32;1.80;99.90
7192;DHT22;3637;51.494;11.958;2023-04-03T05:22:35;1.90;99.90
7192;DHT22;3637;51.494;11.958;2023-04-03T05:25:37;1.90;99.90
7192;DHT22;3637;51.494;11.958;2023-04-03T05:28:39;1.90;99.90
7192;DHT22;3637;51.494;11.958;2023-04-03T05:31:41;1.80;99.90
7192;DHT22;3637;51.494;11.958;2023-04-03T05:34:42;1.90;99.90
7192;DHT22;3637;51.494;11.958;2023-04-03T05:37:46;1.80;99.90
7192;DHT22;3637;51.494;11.958;2023-04-03T05:40:48;1.90;99.90
7192;DHT22;3637;51.494;11.958;2023-04-03T05:43:50;1.90;99.90
7192;DHT22;3637;51.494;11.958;2023-04-03T05:46:52;3.30;99.90
7192;DHT22;3637;51.494;11.958;2023-04-03T05:49:54;2.00;99.90
7192;DHT22;3637;51.494;11.958;2023-04-03T05:53:02;1.60;99.90
7192;DHT22;3637;51.494;11.958;2023-04-03T05:56:05;2.10;99.90
7192;DHT22;3637;51.494;11.958;2023-04-03T05:59:07;2.10;99.90
7192;DHT22;3637;51.494;11.958;2023-04-03T06:02:11;2.20;99.90
7192;DHT22;3637;51.494;11.958;2023-04-03T06:05:14;2.20;99.90
7192;DHT22;3637;51.494;11.958;2023-04-03T06:08:17;2.20;99.90
7192;DHT22;3637;51.494;11.958;2023-04-03T06:11:19;2.30;99.90
7192;DHT22;3637;51.494;11.958;2023-04-03T06:14:23;2.90;99.90
7192;DHT22;3637;51.494;11.958;2023-04-03T06:17:24;2.30;99.90
7192;DHT22;3637;51.494;11.958;2023-04-03T06:20:27;2.60;99.90
7192;DHT22;3637;51.494;11.958;2023-04-03T06:23:30;2.50;99.90
7192;DHT22;3637;51.494;11.958;2023-04-03T06:26:33;2.50;99.90
7192;DHT22;3637;51.494;11.958;2023-04-03T06:29:35;3.40;99.90
7192;DHT22;3637;51.494;11.958;2023-04-03T06:32:37;2.50;99.90
7192;DHT22;3637;51.494;11.958;2023-04-03T06:35:39;2.60;99.90
7192;DHT22;3637;51.494;11.958;2023-04-03T06:38:42;2.60;99.90
7192;DHT22;3637;51.494;11.958;2023-04-03T06:41:44;2.70;99.90
7192;DHT22;3637;51.494;11.958;2023-04-03T06:44:46;2.90;99.90
7192;DHT22;3637;51.494;11.958;2023-04-03T06:47:48;2.80;99.90
7192;DHT22;3637;51.494;11.958;2023-04-03T06:50:50;3.00;99.90
7192;DHT22;3637;51.494;11.958;2023-04-03T06:53:54;3.00;99.90
7192;DHT22;3637;51.494;11.958;2023-04-03T06:56:56;3.00;99.90
7192;DHT22;3637;51.494;11.958;2023-04-03T06:59:58;2.90;99.90
7192;DHT22;3637;51.494;11.958;2023-04-03T07:03:00;2.90;99.90
7192;DHT22;3637;51.494;11.958;2023-04-03T07:06:02;3.00;99.90
7192;DHT22;3637;51.494;11.958;2023-04-03T07:09:05;3.10;99.90
7192;DHT22;3637;51.494;11.958;2023-04-03T07:12:08;3.20;99.90
7192;DHT22;3637;51.494;11.958;2023-04-03T07:15:10;3.20;99.90
7192;DHT22;3637;51.494;11.958;2023-04-03T07:18:13;3.30;99.90
7192;DHT22;3637;51.494;11.958;2023-04-03T07:21:15;3.40;99.90
7192;DHT22;3637;51.494;11.958;2023-04-03T07:24:18;3.40;99.90
7192;DHT22;3637;51.494;11.958;2023-04-03T07:27:19;3.50;99.90
7192;DHT22;3637;51.494;11.958;2023-04-03T07:30:21;3.60;99.90
7192;DHT22;3637;51.494;11.958;2023-04-03T07:33:23;3.60;99.90
7192;DHT22;3637;51.494;11.958;2023-04-03T07:36:25;3.80;99.90
7192;DHT22;3637;51.494;11.958;2023-04-03T07:39:28;3.90;99.90
7192;DHT22;3637;51.494;11.958;2023-04-03T07:42:30;4.00;99.90
7192;DHT22;3637;51.494;11.958;2023-04-03T07:45:34;4.50;99.90
7192;DHT22;3637;51.494;11.958;2023-04-03T07:48:36;4.40;99.90
7192;DHT22;3637;51.494;11.958;2023-04-03T07:51:38;3.80;99.90
7192;DHT22;3637;51.494;11.958;2023-04-03T07:54:41;3.80;99.90
7192;DHT22;3637;51.494;11.958;2023-04-03T07:57:43;3.80;99.90
7192;DHT22;3637;51.494;11.958;2023-04-03T08:00:46;3.90;99.90
7192;DHT22;3637;51.494;11.958;2023-04-03T08:03:48;4.10;99.90
7192;DHT22;3637;51.494;11.958;2023-04-03T08:06:49;4.00;99.90
7192;DHT22;3637;51.494;11.958;2023-04-03T08:09:53;4.30;99.90
7192;DHT22;3637;51.494;11.958;2023-04-03T08:12:54;4.80;99.90
7192;DHT22;3637;51.494;11.958;2023-04-03T08:15:56;4.20;99.90
7192;DHT22;3637;51.494;11.958;2023-04-03T08:18:59;4.50;99.90
7192;DHT22;3637;51.494;11.958;2023-04-03T08:22:01;4.60;99.90
7192;DHT22;3637;51.494;11.958;2023-04-03T08:25:07;4.50;99.90
7192;DHT22;3637;51.494;11.958;2023-04-03T08:28:09;4.70;99.90
7192;DHT22;3637;51.494;11.958;2023-04-03T08:31:13;4.70;99.90
7192;DHT22;3637;51.494;11.958;2023-04-03T08:34:16;4.90;99.90
7192;DHT22;3637;51.494;11.958;2023-04-03T08:37:18;5.00;99.70
7192;DHT22;3637;51.494;11.958;2023-04-03T08:40:22;4.90;99.90
7192;DHT22;3637;51.494;11.958;2023-04-03T08:43:34;5.00;99.50
7192;DHT22;3637;51.494;11.958;2023-04-03T08:46:46;4.90;99.80
7192;DHT22;3637;51.494;11.958;2023-04-03T08:49:52;5.30;99.90
7192;DHT22;3637;51.494;11.958;2023-04-03T08:52:56;4.70;99.90
7192;DHT22;3637;51.494;11.958;2023-04-03T08:56:04;4.70;99.90
7192;DHT22;3637;51.494;11.958;2023-04-03T08:59:12;4.80;99.80
7192;DHT22;3637;51.494;11.958;2023-04-03T09:02:25;4.80;98.10
7192;DHT22;3637;51.494;11.958;2023-04-03T09:05:35;4.80;98.30
7192;DHT22;3637;51.494;11.958;2023-04-03T09:08:44;5.00;98.80
7192;DHT22;3637;51.494;11.958;2023-04-03T09:11:55;5.10;98.40
7192;DHT22;3637;51.494;11.958;2023-04-03T09:15:02;5.30;98.00
7192;DHT22;3637;51.494;11.958;2023-04-03T09:18:16;5.60;98.00
7192;DHT22;3637;51.494;11.958;2023-04-03T09:21:24;5.70;96.30
7192;DHT22;3637;51.494;11.958;2023-04-03T09:24:26;6.10;96.00
7192;DHT22;3637;51.494;11.958;2023-04-03T09:27:30;6.00;96.00
7192;DHT22;3637;51.494;11.958;2023-04-03T09:30:32;6.00;95.60
7192;DHT22;3637;51.494;11.958;2023-04-03T09:33:35;7.00;96.00
7192;DHT22;3637;51.494;11.958;2023-04-03T09:36:41;6.20;95.30
7192;DHT22;3637;51.494;11.958;2023-04-03T09:39:50;6.00;94.10
7192;DHT22;3637;51.494;11.958;2023-04-03T09:42:57;6.10;94.80
7192;DHT22;3637;51.494;11.958;2023-04-03T09:46:18;6.30;94.20
7192;DHT22;3637;51.494;11.958;2023-04-03T09:49:20;6.40;92.40
7192;DHT22;3637;51.494;11.958;2023-04-03T09:52:25;6.40;92.70
7192;DHT22;3637;51.494;11.958;2023-04-03T09:55:27;6.40;93.10
7192;DHT22;3637;51.494;11.958;2023-04-03T09:58:33;6.80;93.00
7192;DHT22;3637;51.494;11.958;2023-04-03T10:01:37;6.80;93.20
7192;DHT22;3637;51.494;11.958;2023-04-03T10:04:39;7.30;93.40
7192;DHT22;3637;51.494;11.958;2023-04-03T10:07:42;6.90;95.80
7192;DHT22;3637;51.494;11.958;2023-04-03T10:10:45;7.20;97.00
7192;DHT22;3637;51.494;11.958;2023-04-03T10:14:00;7.40;93.90
7192;DHT22;3637;51.494;11.958;2023-04-03T10:17:13;7.30;93.00
7192;DHT22;3637;51.494;11.958;2023-04-03T10:20:27;7.30;91.40
7192;DHT22;3637;51.494;11.958;2023-04-03T10:23:36;7.00;92.40
7192;DHT22;3637;51.494;11.958;2023-04-03T10:26:50;7.10;91.70
7192;DHT22;3637;51.494;11.958;2023-04-03T10:30:01;6.70;91.10
7192;DHT22;3637;51.494;11.958;2023-04-03T10:33:18;6.80;91.40
7192;DHT22;3637;51.494;11.958;2023-04-03T10:36:28;6.80;90.20
7192;DHT22;3637;51.494;11.958;2023-04-03T10:39:39;6.80;91.00
7192;DHT22;3637;51.494;11.958;2023-04-03T10:42:52;6.90;91.10
7192;DHT22;3637;51.494;11.958;2023-04-03T10:46:03;7.40;92.00
7192;DHT22;3637;51.494;11.958;2023-04-03T10:49:14;7.00;91.20
7192;DHT22;3637;51.494;11.958;2023-04-03T10:52:23;7.00;91.50
7192;DHT22;3637;51.494;11.958;2023-04-03T10:55:34;6.90;91.10
7192;DHT22;3637;51.494;11.958;2023-04-03T10:58:40;6.80;90.90
7192;DHT22;3637;51.494;11.958;2023-04-03T11:01:47;7.80;91.70
7192;DHT22;3637;51.494;11.958;2023-04-03T11:04:52;6.70;91.50
7192;DHT22;3637;51.494;11.958;2023-04-03T11:07:55;6.30;90.80
7192;DHT22;3637;51.494;11.958;2023-04-03T11:11:01;6.60;91.20
7192;DHT22;3637;51.494;11.958;2023-04-03T11:14:11;6.80;92.00
7192;DHT22;3637;51.494;11.958;2023-04-03T11:17:26;6.50;90.40
7192;DHT22;3637;51.494;11.958;2023-04-03T11:20:32;7.20;89.50
7192;DHT22;3637;51.494;11.958;2023-04-03T11:23:36;6.90;86.40
7192;DHT22;3637;51.494;11.958;2023-04-03T11:26:40;7.00;86.50
7192;DHT22;3637;51.494;11.958;2023-04-03T11:29:44;7.30;87.60
7192;DHT22;3637;51.494;11.958;2023-04-03T11:33:17;7.10;88.80
7192;DHT22;3637;51.494;11.958;2023-04-03T11:36:23;7.00;87.80
7192;DHT22;3637;51.494;11.958;2023-04-03T11:39:30;7.10;88.80
7192;DHT22;3637;51.494;11.958;2023-04-03T11:42:38;7.90;87.00
7192;DHT22;3637;51.494;11.958;2023-04-03T11:45:50;7.50;86.10
7192;DHT22;3637;51.494;11.958;2023-04-03T11:48:54;7.20;86.40
7192;DHT22;3637;51.494;11.958;2023-04-03T11:51:56;7.30;84.20
7192;DHT22;3637;51.494;11.958;2023-04-03T11:54:58;7.20;83.20
7192;DHT22;3637;51.494;11.958;2023-04-03T11:58:12;7.80;87.90
7192;DHT22;3637;51.494;11.958;2023-04-03T12:01:43;7.20;88.30
7192;DHT22;3637;51.494;11.958;2023-04-03T12:08:25;7.50;85.10
7192;DHT22;3637;51.494;11.958;2023-04-03T12:11:30;7.80;83.90
7192;DHT22;3637;51.494;11.958;2023-04-03T12:14:32;8.00;82.60
7192;DHT22;3637;51.494;11.958;2023-04-03T12:17:34;7.80;82.50
7192;DHT22;3637;51.494;11.958;2023-04-03T12:20:58;7.80;82.60
7192;DHT22;3637;51.494;11.958;2023-04-03T12:24:03;7.70;84.20
7192;DHT22;3637;51.494;11.958;2023-04-03T12:27:18;7.60;81.40
7192;DHT22;3637;51.494;11.958;2023-04-03T12:30:25;7.50;81.40
7192;DHT22;3637;51.494;11.958;2023-04-03T12:33:36;7.30;81.80
7192;DHT22;3637;51.494;11.958;2023-04-03T12:36:50;7.60;81.30
7192;DHT22;3637;51.494;11.958;2023-04-03T12:40:04;7.30;80.50
7192;DHT22;3637;51.494;11.958;2023-04-03T12:43:21;7.20;76.70
7192;DHT22;3637;51.494;11.958;2023-04-03T12:46:33;7.60;79.50
7192;DHT22;3637;51.494;11.958;2023-04-03T12:49:40;7.60;76.80
7192;DHT22;3637;51.494;11.958;2023-04-03T12:52:49;7.20;77.70
7192;DHT22;3637;51.494;11.958;2023-04-03T12:55:54;7.10;76.30
7192;DHT22;3637;51.494;11.958;2023-04-03T12:59:12;7.40;77.40
7192;DHT22;3637;51.494;11.958;2023-04-03T13:02:23;7.60;77.60
7192;DHT22;3637;51.494;11.958;2023-04-03T13:05:25;7.50;77.20
7192;DHT22;3637;51.494;11.958;2023-04-03T13:08:29;7.30;77.20
7192;DHT22;3637;51.494;11.958;2023-04-03T13:11:34;7.40;79.50
7192;DHT22;3637;51.494;11.958;2023-04-03T13:14:40;7.50;78.90
7192;DHT22;3637;51.494;11.958;2023-04-03T13:17:42;7.60;79.00
7192;DHT22;3637;51.494;11.958;2023-04-03T13:20:47;7.60;81.00
7192;DHT22;3637;51.494;11.958;2023-04-03T13:23:53;7.50;80.30
7192;DHT22;3637;51.494;11.958;2023-04-03T13:26:56;6.90;80.70
7192;DHT22;3637;51.494;11.958;2023-04-03T13:30:00;7.50;81.10
7192;DHT22;3637;51.494;11.958;2023-04-03T13:33:04;7.30;79.90
7192;DHT22;3637;51.494;11.958;2023-04-03T13:36:09;7.20;82.00
7192;DHT22;3637;51.494;11.958;2023-04-03T13:39:26;7.10;81.00
7192;DHT22;3637;51.494;11.958;2023-04-03T13:42:30;7.50;82.10
7192;DHT22;3637;51.494;11.958;2023-04-03T13:45:33;7.10;83.60
7192;DHT22;3637;51.494;11.958;2023-04-03T13:48:38;7.10;79.40
7192;DHT22;3637;51.494;11.958;2023-04-03T13:51:41;7.10;78.60
7192;DHT22;3637;51.494;11.958;2023-04-03T13:54:46;7.10;76.40
7192;DHT22;3637;51.494;11.958;2023-04-03T13:57:52;6.90;78.20
7192;DHT22;3637;51.494;11.958;2023-04-03T14:00:56;7.20;81.10
7192;DHT22;3637;51.494;11.958;2023-04-03T14:04:09;7.70;78.80
7192;DHT22;3637;51.494;11.958;2023-04-03T14:07:13;7.50;79.90
7192;DHT22;3637;51.494;11.958;2023-04-03T14:10:17;7.20;80.00
7192;DHT22;3637;51.494;11.958;2023-04-03T14:13:20;7.10;79.30
7192;DHT22;3637;51.494;11.958;2023-04-03T14:16:24;7.20;80.20
7192;DHT22;3637;51.494;11.958;2023-04-03T14:19:29;7.20;80.30
7192;DHT22;3637;51.494;11.958;2023-04-03T14:22:33;7.20;77.10
7192;DHT22;3637;51.494;11.958;2023-04-03T14:25:36;7.10;78.60
7192;DHT22;3637;51.494;11.958;2023-04-03T14:28:39;7.40;80.40
7192;DHT22;3637;51.494;11.958;2023-04-03T14:31:43;7.00;80.10
7192;DHT22;3637;51.494;11.958;2023-04-03T14:34:45;7.10;80.60
7192;DHT22;3637;51.494;11.958;2023-04-03T14:37:48;7.10;79.00
7192;DHT22;3637;51.494;11.958;2023-04-03T14:40:52;7.20;80.50
7192;DHT22;3637;51.494;11.958;2023-04-03T14:43:56;7.30;78.40
7192;DHT22;3637;51.494;11.958;2023-04-03T14:47:00;7.30;76.30
7192;DHT22;3637;51.494;11.958;2023-04-03T14:50:04;7.30;75.20
7192;DHT22;3637;51.494;11.958;2023-04-03T14:53:10;7.20;75.40
7192;DHT22;3637;51.494;11.958;2023-04-03T14:56:17;7.50;76.70
7192;DHT22;3637;51.494;11.958;2023-04-03T14:59:19;7.20;76.40
7192;DHT22;3637;51.494;11.958;2023-04-03T15:02:27;7.10;76.80
7192;DHT22;3637;51.494;11.958;2023-04-03T15:05:29;7.00;79.30
7192;DHT22;3637;51.494;11.958;2023-04-03T15:08:31;7.00;77.70
7192;DHT22;3637;51.494;11.958;2023-04-03T15:11:34;6.70;77.50
7192;DHT22;3637;51.494;11.958;2023-04-03T15:14:36;6.90;77.70
7192;DHT22;3637;51.494;11.958;2023-04-03T15:17:38;6.60;80.70
7192;DHT22;3637;51.494;11.958;2023-04-03T15:20:40;6.70;81.00
7192;DHT22;3637;51.494;11.958;2023-04-03T15:23:43;7.40;78.90
7192;DHT22;3637;51.494;11.958;2023-04-03T15:26:46;8.30;80.70
7192;DHT22;3637;51.494;11.958;2023-04-03T15:29:48;7.60;77.40
7192;DHT22;3637;51.494;11.958;2023-04-03T15:32:51;6.90;77.10
7192;DHT22;3637;51.494;11.958;2023-04-03T15:35:53;6.90;75.60
7192;DHT22;3637;51.494;11.958;2023-04-03T15:38:55;6.90;78.70
7192;DHT22;3637;51.494;11.958;2023-04-03T15:41:59;7.10;92.80
7192;DHT22;3637;51.494;11.958;2023-04-03T15:45:07;7.30;88.80
7192;DHT22;3637;51.494;11.958;2023-04-03T15:48:10;7.30;82.30
7192;DHT22;3637;51.494;11.958;2023-04-03T15:51:12;7.30;81.40
7192;DHT22;3637;51.494;11.958;2023-04-03T15:54:14;7.10;79.80
7192;DHT22;3637;51.494;11.958;2023-04-03T15:57:17;7.10;80.20
7192;DHT22;3637;51.494;11.958;2023-04-03T16:00:20;7.20;80.30
7192;DHT22;3637;51.494;11.958;2023-04-03T16:03:22;7.00;80.30
7192;DHT22;3637;51.494;11.958;2023-04-03T16:06:25;7.00;81.80
7192;DHT22;3637;51.494;11.958;2023-04-03T16:09:30;7.00;80.30
7192;DHT22;3637;51.494;11.958;2023-04-03T16:12:33;7.50;82.10
7192;DHT22;3637;51.494;11.958;2023-04-03T16:15:35;7.00;80.70
7192;DHT22;3637;51.494;11.958;2023-04-03T16:18:37;7.30;79.80
7192;DHT22;3637;51.494;11.958;2023-04-03T16:21:39;6.90;80.30
7192;DHT22;3637;51.494;11.958;2023-04-03T16:24:41;6.80;80.80
7192;DHT22;3637;51.494;11.958;2023-04-03T16:27:44;7.40;78.30
7192;DHT22;3637;51.494;11.958;2023-04-03T16:30:47;7.10;77.20
7192;DHT22;3637;51.494;11.958;2023-04-03T16:33:49;6.90;77.70
7192;DHT22;3637;51.494;11.958;2023-04-03T16:36:51;6.80;77.10
7192;DHT22;3637;51.494;11.958;2023-04-03T16:39:53;7.20;77.60
7192;DHT22;3637;51.494;11.958;2023-04-03T16:42:56;6.80;77.60
7192;DHT22;3637;51.494;11.958;2023-04-03T16:45:59;6.60;78.40
7192;DHT22;3637;51.494;11.958;2023-04-03T16:49:02;6.80;78.40
7192;DHT22;3637;51.494;11.958;2023-04-03T16:52:05;6.90;79.40
7192;DHT22;3637;51.494;11.958;2023-04-03T16:55:08;6.60;79.40
7192;DHT22;3637;51.494;11.958;2023-04-03T16:58:11;6.50;77.80
7192;DHT22;3637;51.494;11.958;2023-04-03T17:01:15;6.50;77.20
7192;DHT22;3637;51.494;11.958;2023-04-03T17:04:17;6.50;78.40
7192;DHT22;3637;51.494;11.958;2023-04-03T17:07:20;6.50;78.70
7192;DHT22;3637;51.494;11.958;2023-04-03T17:10:22;6.40;79.70
7192;DHT22;3637;51.494;11.958;2023-04-03T17:13:25;6.40;79.80
7192;DHT22;3637;51.494;11.958;2023-04-03T17:16:32;6.30;81.00
7192;DHT22;3637;51.494;11.958;2023-04-03T17:19:35;6.30;80.70
7192;DHT22;3637;51.494;11.958;2023-04-03T17:22:38;6.30;80.10
7192;DHT22;3637;51.494;11.958;2023-04-03T17:25:39;6.30;77.90
7192;DHT22;3637;51.494;11.958;2023-04-03T17:28:43;6.30;77.80
7192;DHT22;3637;51.494;11.958;2023-04-03T17:31:45;6.30;78.70
7192;DHT22;3637;51.494;11.958;2023-04-03T17:34:46;6.40;79.10
7192;DHT22;3637;51.494;11.958;2023-04-03T17:37:48;6.40;80.00
7192;DHT22;3637;51.494;11.958;2023-04-03T17:40:50;6.20;79.50
7192;DHT22;3637;51.494;11.958;2023-04-03T17:43:53;6.50;79.60
7192;DHT22;3637;51.494;11.958;2023-04-03T17:46:56;6.30;78.20
7192;DHT22;3637;51.494;11.958;2023-04-03T17:49:58;6.30;78.60
7192;DHT22;3637;51.494;11.958;2023-04-03T17:53:00;6.30;79.00
7192;DHT22;3637;51.494;11.958;2023-04-03T17:56:05;6.30;79.90
7192;DHT22;3637;51.494;11.958;2023-04-03T17:59:09;6.10;81.20
7192;DHT22;3637;51.494;11.958;2023-04-03T18:02:11;6.30;82.30
7192;DHT22;3637;51.494;11.958;2023-04-03T18:05:13;6.00;83.40
7192;DHT22;3637;51.494;11.958;2023-04-03T18:08:14;6.10;83.60
7192;DHT22;3637;51.494;11.958;2023-04-03T18:11:18;6.10;83.90
7192;DHT22;3637;51.494;11.958;2023-04-03T18:14:24;6.10;85.30
7192;DHT22;3637;51.494;11.958;2023-04-03T18:17:27;6.10;85.90
7192;DHT22;3637;51.494;11.958;2023-04-03T18:20:29;6.50;87.10
7192;DHT22;3637;51.494;11.958;2023-04-03T18:23:32;6.10;88.30
7192;DHT22;3637;51.494;11.958;2023-04-03T18:26:36;5.90;88.70
7192;DHT22;3637;51.494;11.958;2023-04-03T18:29:40;6.00;88.40
7192;DHT22;3637;51.494;11.958;2023-04-03T18:32:43;6.10;88.00
7192;DHT22;3637;51.494;11.958;2023-04-03T18:35:44;6.10;89.00
7192;DHT22;3637;51.494;11.958;2023-04-03T18:38:46;6.10;88.70
7192;DHT22;3637;51.494;11.958;2023-04-03T18:41:51;6.00;87.40
7192;DHT22;3637;51.494;11.958;2023-04-03T18:44:57;6.00;87.50
7192;DHT22;3637;51.494;11.958;2023-04-03T18:47:59;6.20;88.00
7192;DHT22;3637;51.494;11.958;2023-04-03T18:51:01;6.20;87.30
7192;DHT22;3637;51.494;11.958;2023-04-03T18:54:05;6.10;86.60
7192;DHT22;3637;51.494;11.958;2023-04-03T18:57:09;6.10;86.00
7192;DHT22;3637;51.494;11.958;2023-04-03T19:00:13;5.80;86.10
7192;DHT22;3637;51.494;11.958;2023-04-03T19:03:15;5.90;86.40
7192;DHT22;3637;51.494;11.958;2023-04-03T19:06:17;5.90;87.40
7192;DHT22;3637;51.494;11.958;2023-04-03T19:09:19;5.90;87.40
7192;DHT22;3637;51.494;11.958;2023-04-03T19:12:21;5.80;88.70
7192;DHT22;3637;51.494;11.958;2023-04-03T19:15:24;6.20;89.20
7192;DHT22;3637;51.494;11.958;2023-04-03T19:18:26;4.80;85.80
7192;DHT22;3637;51.494;11.958;2023-04-03T19:21:28;5.90;87.40
7192;DHT22;3637;51.494;11.958;2023-04-03T19:24:30;6.30;87.10
7192;DHT22;3637;51.494;11.958;2023-04-03T19:27:33;6.10;86.10
7192;DHT22;3637;51.494;11.958;2023-04-03T19:30:37;5.70;85.90
7192;DHT22;3637;51.494;11.958;2023-04-03T19:33:39;5.60;82.60
7192;DHT22;3637;51.494;11.958;2023-04-03T19:36:42;5.80;85.30
7192;DHT22;3637;51.494;11.958;2023-04-03T19:39:44;5.60;81.10
7192;DHT22;3637;51.494;11.958;2023-04-03T19:42:46;5.60;82.70
7192;DHT22;3637;51.494;11.958;2023-04-03T19:45:52;5.90;82.70
7192;DHT22;3637;51.494;11.958;2023-04-03T19:48:54;5.80;82.50
7192;DHT22;3637;51.494;11.958;2023-04-03T19:51:56;6.20;82.90
7192;DHT22;3637;51.494;11.958;2023-04-03T19:54:59;5.70;83.40
7192;DHT22;3637;51.494;11.958;2023-04-03T19:58:01;5.80;83.60
7192;DHT22;3637;51.494;11.958;2023-04-03T20:01:05;5.80;84.10
7192;DHT22;3637;51.494;11.958;2023-04-03T20:04:07;6.10;86.10
7192;DHT22;3637;51.494;11.958;2023-04-03T20:07:09;5.70;86.20
7192;DHT22;3637;51.494;11.958;2023-04-03T20:10:12;6.20;87.40